createdAt,value
2023-04-15T00:00:47.028Z,98854.01
2023-04-15T00:03:35.202Z,98849.81
2023-04-15T00:06:22.176Z,98847.61
2023-04-15T00:09:07.655Z,98846.86
2023-04-15T00:11:53.938Z,98845.55
2023-04-15T00:14:40.228Z,98847.61
2023-04-15T00:17:28.107Z,98847.64
2023-04-15T00:20:14.091Z,98848.31
2023-04-15T00:23:00.595Z,98850.98
2023-04-15T00:25:47.909Z,98848.56
2023-04-15T00:28:33.383Z,98843.16
2023-04-15T00:31:18.986Z,98848.39
2023-04-15T00:34:04.642Z,98846.73
2023-04-15T00:36:52.184Z,98849.60
2023-04-15T00:42:39.869Z,98843.27
2023-04-15T00:45:28.172Z,98839.46
2023-04-15T00:48:15.497Z,98843.66
2023-04-15T00:51:00.813Z,98849.80
2023-04-15T00:53:46.561Z,98852.16
2023-04-15T00:56:39.304Z,98859.23
2023-04-15T00:59:25.808Z,98855.67
2023-04-15T01:02:12.320Z,98855.23
2023-04-15T01:04:58.203Z,98856.48
2023-04-15T01:07:44.102Z,98862.11
2023-04-15T01:10:40.014Z,98858.45
2023-04-15T01:13:25.185Z,98858.20
2023-04-15T01:19:27.060Z,98855.70
2023-04-15T01:22:12.543Z,98850.89
2023-04-15T01:25:09.272Z,98850.07
2023-04-15T01:27:55.170Z,98856.58
2023-04-15T01:30:40.615Z,98855.48
2023-04-15T01:33:30.332Z,98856.98
2023-04-15T01:36:16.019Z,98854.47
2023-04-15T01:39:01.718Z,98860.40
2023-04-15T01:41:48.321Z,98867.57
2023-04-15T01:44:33.686Z,98867.42
2023-04-15T01:47:19.174Z,98874.08
2023-04-15T01:50:07.203Z,98871.13
2023-04-15T01:52:52.580Z,98871.61
2023-04-15T01:55:39.197Z,98868.56
2023-04-15T01:58:24.568Z,98870.45
2023-04-15T02:01:11.813Z,98866.02
2023-04-15T02:03:57.414Z,98864.95
2023-04-15T02:06:45.812Z,98865.70
2023-04-15T02:09:31.407Z,98869.33
2023-04-15T02:12:16.979Z,98868.77
2023-04-15T02:15:02.603Z,98870.70
2023-04-15T02:17:51.655Z,98873.39
2023-04-15T02:20:37.835Z,98875.48
2023-04-15T02:23:24.093Z,98882.77
2023-04-15T02:26:10.400Z,98881.90
2023-04-15T02:28:56.725Z,98884.03
2023-04-15T02:31:45.155Z,98886.93
2023-04-15T02:34:32.482Z,98891.14
2023-04-15T02:37:20.830Z,98890.30
2023-04-15T02:43:23.179Z,98887.46
2023-04-15T02:46:08.674Z,98894.65
2023-04-15T02:48:53.978Z,98898.70
2023-04-15T02:51:41.300Z,98901.66
2023-04-15T02:54:29.856Z,98908.21
2023-04-15T02:57:15.229Z,98908.10
2023-04-15T03:00:00.808Z,98908.73
2023-04-15T03:02:47.072Z,98910.39
2023-04-15T03:05:33.038Z,98910.75
2023-04-15T03:08:19.096Z,98926.18
2023-04-15T03:11:04.790Z,98928.36
2023-04-15T03:13:50.211Z,98933.86
2023-04-15T03:16:36.032Z,98943.25
2023-04-15T03:19:21.641Z,98947.80
2023-04-15T03:22:07.111Z,98950.77
2023-04-15T03:24:52.602Z,98951.90
2023-04-15T03:27:38.369Z,98955.66
2023-04-15T03:30:23.934Z,98967.63
2023-04-15T03:33:09.319Z,98964.71
2023-04-15T03:35:54.701Z,98961.91
2023-04-15T03:38:40.588Z,98963.27
2023-04-15T03:41:26.701Z,98964.58
2023-04-15T03:44:12.466Z,98977.50
2023-04-15T03:46:57.742Z,98983.99
2023-04-15T03:49:43.431Z,98989.58
2023-04-15T03:52:28.720Z,98997.08
2023-04-15T03:55:15.192Z,99003.72
2023-04-15T03:58:01.605Z,99003.98
2023-04-15T04:00:46.772Z,99004.39
2023-04-15T04:03:34.312Z,99017.03
2023-04-15T04:06:20.555Z,99020.05
2023-04-15T04:09:06.180Z,99015.67
2023-04-15T04:18:23.342Z,99032.04
2023-04-15T04:21:09.760Z,99030.45
2023-04-15T04:23:56.344Z,99037.33
2023-04-15T04:26:41.725Z,99038.49
2023-04-15T04:35:58.698Z,99051.34
2023-04-15T04:45:08.103Z,99077.88
2023-04-15T04:47:53.435Z,99082.30
2023-04-15T04:50:39.217Z,99082.64
2023-04-15T04:56:27.477Z,99082.70
2023-04-15T04:59:13.479Z,99078.51
2023-04-15T05:01:59.224Z,99081.49
2023-04-15T05:04:46.245Z,99083.53
2023-04-15T05:07:31.647Z,99086.08
2023-04-15T05:10:18.455Z,99081.66
2023-04-15T05:13:04.660Z,99081.66
2023-04-15T05:15:50.266Z,99090.87
2023-04-15T05:18:36.199Z,99092.73
2023-04-15T05:21:24.475Z,99094.90
2023-04-15T05:24:10.156Z,99091.83
2023-04-15T05:27:01.497Z,99095.63
2023-04-15T05:29:46.747Z,99098.56
2023-04-15T05:32:32.071Z,99095.69
2023-04-15T05:35:17.719Z,99107.52
2023-04-15T05:38:03.188Z,99112.71
2023-04-15T05:40:58.601Z,99122.39
2023-04-15T05:43:43.780Z,99124.16
2023-04-15T05:46:29.227Z,99120.48
2023-04-15T05:49:16.542Z,99124.86
2023-04-15T05:52:02.658Z,99128.60
2023-04-15T05:54:48.249Z,99128.78
2023-04-15T05:57:34.045Z,99131.20
2023-04-15T06:00:20.527Z,99132.52
2023-04-15T06:03:06.050Z,99138.64
2023-04-15T06:05:52.618Z,99142.28
2023-04-15T06:08:38.401Z,99149.80
2023-04-15T06:11:27.153Z,99150.63
2023-04-15T06:14:13.341Z,99151.02
2023-04-15T06:16:58.534Z,99149.64
2023-04-15T06:19:43.501Z,99154.22
2023-04-15T06:22:28.952Z,99159.76
2023-04-15T06:25:15.180Z,99164.88
2023-04-15T06:28:01.087Z,99165.81
2023-04-15T06:30:46.643Z,99171.28
2023-04-15T06:33:31.922Z,99174.98
2023-04-15T06:36:18.135Z,99170.07
2023-04-15T06:39:03.935Z,99165.94
2023-04-15T06:41:50.340Z,99171.25
2023-04-15T06:44:36.902Z,99169.97
2023-04-15T06:47:22.400Z,99174.82
2023-04-15T06:50:09.504Z,99177.20
2023-04-15T06:52:55.895Z,99180.45
2023-04-15T06:55:41.606Z,99180.44
2023-04-15T07:01:30.282Z,99186.80
2023-04-15T07:04:16.391Z,99187.02
2023-04-15T07:07:02.651Z,99186.31
2023-04-15T07:09:48.517Z,99186.05
2023-04-15T07:12:35.559Z,99194.56
2023-04-15T07:15:22.978Z,99197.11
2023-04-15T07:18:09.479Z,99199.30
2023-04-15T07:20:55.985Z,99199.74
2023-04-15T07:23:41.881Z,99197.27
2023-04-15T07:26:27.496Z,99199.73
2023-04-15T07:29:12.825Z,99205.55
2023-04-15T07:31:58.415Z,99214.81
2023-04-15T07:34:44.297Z,99207.95
2023-04-15T07:37:29.991Z,99213.27
2023-04-15T07:40:16.015Z,99220.77
2023-04-15T07:43:01.353Z,99222.75
2023-04-15T07:45:46.913Z,99224.35
2023-04-15T07:48:34.935Z,99220.70
2023-04-15T07:51:24.550Z,99225.02
2023-04-15T07:54:09.847Z,99219.02
2023-04-15T07:56:58.664Z,99222.17
2023-04-15T07:59:44.062Z,99217.08
2023-04-15T08:02:29.779Z,99218.59
2023-04-15T08:05:16.545Z,99222.02
2023-04-15T08:08:02.325Z,99219.76
2023-04-15T08:10:48.262Z,99224.52
2023-04-15T08:13:34.728Z,99231.95
2023-04-15T08:16:29.871Z,99234.92
2023-04-15T08:19:15.412Z,99240.70
2023-04-15T08:22:01.096Z,99243.27
2023-04-15T08:24:48.729Z,99250.73
2023-04-15T08:27:34.318Z,99251.09
2023-04-15T08:30:23.473Z,99251.23
2023-04-15T08:33:13.595Z,99255.28
2023-04-15T08:35:59.042Z,99259.61
2023-04-15T08:38:46.471Z,99257.59
2023-04-15T08:41:39.725Z,99256.23
2023-04-15T08:48:11.918Z,99261.23
2023-04-15T08:50:59.144Z,99263.69
2023-04-15T08:53:47.711Z,99273.60
2023-04-15T08:56:37.594Z,99275.84
2023-04-15T08:59:23.474Z,99276.27
2023-04-15T09:02:08.872Z,99278.05
2023-04-15T09:04:54.419Z,99286.41
2023-04-15T09:07:39.700Z,99281.98
2023-04-15T09:10:26.057Z,99276.76
2023-04-15T09:13:11.941Z,99280.05
2023-04-15T09:15:59.411Z,99276.55
2023-04-15T09:28:31.149Z,99279.48
2023-04-15T09:31:16.689Z,99280.38
2023-04-15T09:34:02.505Z,99278.12
2023-04-15T09:40:04.140Z,99280.35
2023-04-15T10:16:27.640Z,99307.41
2023-04-15T10:19:15.973Z,99305.28
2023-04-15T10:24:53.937Z,99300.14
2023-04-15T10:30:18.802Z,99295.30
2023-04-15T10:33:05.447Z,99300.13
2023-04-15T10:35:52.990Z,99304.33
2023-04-15T10:54:24.592Z,99311.23
2023-04-15T11:00:11.324Z,99318.14
2023-04-15T11:03:11.473Z,99316.86
2023-04-15T11:05:57.492Z,99322.55
2023-04-15T11:09:05.285Z,99319.67
2023-04-15T11:12:11.339Z,99322.58
2023-04-15T11:21:07.863Z,99327.64
2023-04-15T11:23:53.342Z,99325.81
2023-04-15T11:29:32.907Z,99327.71
2023-04-15T11:32:18.526Z,99320.49
2023-04-15T11:35:04.838Z,99331.98
2023-04-15T11:40:46.811Z,99330.95
2023-04-15T11:43:34.666Z,99328.38
2023-04-15T11:49:33.364Z,99334.38
2023-04-15T11:52:18.456Z,99336.11
2023-04-15T11:55:52.541Z,99342.08
2023-04-15T11:58:38.590Z,99345.27
2023-04-15T12:01:42.398Z,99344.89
2023-04-15T12:17:50.915Z,99355.35
2023-04-15T12:46:15.622Z,99367.03
2023-04-15T13:07:55.205Z,99372.22
2023-04-15T13:10:41.862Z,99376.80
2023-04-15T13:13:27.436Z,99374.59
2023-04-15T13:19:23.395Z,99370.73
2023-04-15T13:34:19.022Z,99371.67
2023-04-15T13:43:16.993Z,99370.77
2023-04-15T13:52:31.846Z,99373.77
2023-04-15T14:01:17.953Z,99365.55
2023-04-15T14:23:50.782Z,99376.66
2023-04-15T14:43:04.716Z,99389.02
2023-04-15T14:52:32.366Z,99398.48
2023-04-15T14:55:17.758Z,99398.73
2023-04-15T14:58:20.588Z,99400.52
2023-04-15T15:07:12.913Z,99406.48
2023-04-15T15:12:51.414Z,99418.16
2023-04-15T15:42:51.203Z,99428.86
2023-04-15T15:48:47.686Z,99435.45
2023-04-15T16:04:55.568Z,99450.19
2023-04-15T16:23:05.961Z,99467.65
2023-04-15T16:29:05.520Z,99473.54
2023-04-15T16:35:07.317Z,99479.16
2023-04-15T16:40:49.216Z,99491.19
2023-04-15T16:43:34.602Z,99495.95
2023-04-15T16:46:19.687Z,99495.05
2023-04-15T16:49:04.840Z,99498.41
2023-04-15T17:07:10.452Z,99502.66
2023-04-15T17:09:56.321Z,99522.11
2023-04-15T17:12:41.482Z,99526.38
2023-04-15T17:15:26.821Z,99534.90
2023-04-15T17:21:08.059Z,99540.72
2023-04-15T17:39:52.484Z,99566.39
2023-04-15T17:52:18.306Z,99582.48
2023-04-15T17:55:04.265Z,99587.61
2023-04-15T17:57:49.394Z,99596.45
2023-04-15T18:00:34.596Z,99603.41
2023-04-15T18:09:43.959Z,99632.33
2023-04-15T18:12:28.773Z,99635.24
2023-04-15T18:15:14.100Z,99643.18
2023-04-15T18:17:59.899Z,99650.62
2023-04-15T18:20:45.113Z,99651.34
2023-04-15T18:26:08.690Z,99660.14
2023-04-15T18:34:47.647Z,99676.87
2023-04-15T18:37:41.403Z,99680.33
2023-04-15T18:40:28.778Z,99679.98
2023-04-15T18:46:29.736Z,99687.82
2023-04-15T18:49:15.019Z,99692.56
2023-04-15T18:55:22.466Z,99697.41
2023-04-15T18:58:08.789Z,99698.89
2023-04-15T19:03:47.783Z,99705.95
2023-04-15T19:06:33.228Z,99709.08
2023-04-15T19:09:18.520Z,99710.63
2023-04-15T19:15:19.724Z,99717.45
2023-04-15T19:18:09.907Z,99708.50
2023-04-15T19:20:56.335Z,99723.29
2023-04-15T19:23:44.403Z,99726.09
2023-04-15T19:26:29.861Z,99723.14
2023-04-15T19:32:34.278Z,99733.39
2023-04-15T19:45:58.012Z,99747.13
2023-04-15T19:51:46.335Z,99752.35
2023-04-15T19:55:11.279Z,99753.63
2023-04-15T19:57:57.191Z,99752.31
2023-04-15T20:00:42.293Z,99754.95
2023-04-15T20:03:27.856Z,99755.16
2023-04-15T20:06:16.453Z,99759.05
2023-04-15T20:09:01.598Z,99761.44
2023-04-15T20:14:40.044Z,99767.06
2023-04-15T20:17:25.440Z,99765.91
2023-04-15T20:23:10.082Z,99773.41
2023-04-15T20:28:48.459Z,99778.45
2023-04-15T20:31:33.707Z,99777.42
2023-04-15T20:34:18.586Z,99783.56
2023-04-15T20:40:20.258Z,99780.32
2023-04-15T20:52:32.462Z,99787.38
2023-04-15T20:55:18.056Z,99791.35
2023-04-15T21:00:42.535Z,99792.52
2023-04-15T21:13:06.820Z,99809.59
2023-04-15T21:15:53.500Z,99813.73
2023-04-15T21:18:38.538Z,99817.91
2023-04-15T21:21:23.500Z,99822.95
2023-04-15T21:24:08.947Z,99823.77
2023-04-15T21:29:44.668Z,99825.02
2023-04-15T21:32:30.033Z,99823.81
2023-04-15T21:35:15.371Z,99819.30
2023-04-15T21:38:01.640Z,99826.95
2023-04-15T21:44:03.875Z,99831.84
2023-04-15T21:49:41.501Z,99836.03
2023-04-15T21:52:26.737Z,99840.39
2023-04-15T21:55:11.841Z,99840.41
2023-04-15T21:57:57.125Z,99847.77
2023-04-15T22:00:42.352Z,99850.53
2023-04-15T22:03:33.214Z,99852.95
2023-04-15T22:06:18.595Z,99853.80
2023-04-15T22:12:03.945Z,99859.02
2023-04-15T22:14:49.094Z,99861.21
2023-04-15T22:17:34.526Z,99865.31
2023-04-15T22:26:36.341Z,99878.08
2023-04-15T22:29:29.747Z,99885.09
2023-04-15T22:32:15.337Z,99889.48
2023-04-15T22:35:00.813Z,99890.92
2023-04-15T22:37:45.987Z,99891.54
2023-04-15T22:40:31.381Z,99894.10
2023-04-15T22:43:16.749Z,99898.28
2023-04-15T22:46:04.956Z,99908.52
2023-04-15T22:48:50.441Z,99909.31
2023-04-15T22:52:23.447Z,99910.15
2023-04-15T22:55:19.448Z,99917.65
2023-04-15T22:58:25.780Z,99924.65
2023-04-15T23:01:11.270Z,99923.48
2023-04-15T23:10:04.536Z,99924.97
2023-04-15T23:12:50.276Z,99921.30
2023-04-15T23:15:35.423Z,99920.73
2023-04-15T23:22:00.288Z,99923.16
2023-04-15T23:24:45.655Z,99924.24
2023-04-15T23:30:27.573Z,99917.30
2023-04-15T23:42:53.540Z,99910.63
2023-04-15T23:48:54.167Z,99915.16
2023-04-15T23:51:40.280Z,99918.52
